sensor_id;sensor_type;location;lat;lon;timestamp;pressure;altitude;pressure_sealevel;temperature;humidity
48041;BME280;33815;48.386;11.738;2024-03-07T00:01:20;96875.63;;;3.04;100.00
48041;BME280;33815;48.386;11.738;2024-03-07T00:03:46;96864.34;;;2.92;100.00
48041;BME280;33815;48.386;11.738;2024-03-07T00:06:11;96885.00;;;3.05;100.00
48041;BME280;33815;48.386;11.738;2024-03-07T00:08:36;96871.78;;;2.97;100.00
48041;BME280;33815;48.386;11.738;2024-03-07T00:11:01;96871.06;;;2.95;100.00
48041;BME280;33815;48.386;11.738;2024-03-07T00:13:27;96882.31;;;3.06;100.00
48041;BME280;33815;48.386;11.738;2024-03-07T00:15:53;96879.31;;;3.00;100.00
48041;BME280;33815;48.386;11.738;2024-03-07T00:18:18;96878.13;;;2.91;100.00
48041;BME280;33815;48.386;11.738;2024-03-07T00:20:44;96883.00;;;2.96;100.00
48041;BME280;33815;48.386;11.738;2024-03-07T00:23:09;96896.88;;;3.07;100.00
48041;BME280;33815;48.386;11.738;2024-03-07T00:25:35;96886.31;;;2.98;100.00
48041;BME280;33815;48.386;11.738;2024-03-07T00:28:00;96881.16;;;2.98;100.00
48041;BME280;33815;48.386;11.738;2024-03-07T00:30:28;96884.84;;;2.94;100.00
48041;BME280;33815;48.386;11.738;2024-03-07T00:32:55;96872.63;;;2.83;100.00
48041;BME280;33815;48.386;11.738;2024-03-07T00:35:21;96867.63;;;2.94;100.00
48041;BME280;33815;48.386;11.738;2024-03-07T00:37:47;96872.00;;;2.79;100.00
48041;BME280;33815;48.386;11.738;2024-03-07T00:40:12;96887.06;;;2.85;100.00
48041;BME280;33815;48.386;11.738;2024-03-07T00:42:38;96874.66;;;2.78;100.00
48041;BME280;33815;48.386;11.738;2024-03-07T00:45:04;96878.25;;;2.75;100.00
48041;BME280;33815;48.386;11.738;2024-03-07T00:47:29;96892.75;;;2.90;100.00
48041;BME280;33815;48.386;11.738;2024-03-07T00:49:55;96878.69;;;2.82;100.00
48041;BME280;33815;48.386;11.738;2024-03-07T00:52:20;96890.00;;;2.94;100.00
48041;BME280;33815;48.386;11.738;2024-03-07T00:54:46;96883.13;;;2.80;100.00
48041;BME280;33815;48.386;11.738;2024-03-07T00:57:11;96891.47;;;2.83;100.00
48041;BME280;33815;48.386;11.738;2024-03-07T00:59:36;96887.47;;;2.79;100.00
48041;BME280;33815;48.386;11.738;2024-03-07T01:02:02;96882.94;;;2.83;100.00
48041;BME280;33815;48.386;11.738;2024-03-07T01:04:27;96878.59;;;2.83;100.00
48041;BME280;33815;48.386;11.738;2024-03-07T01:06:56;96884.19;;;2.90;100.00
48041;BME280;33815;48.386;11.738;2024-03-07T01:09:22;96885.50;;;2.83;100.00
48041;BME280;33815;48.386;11.738;2024-03-07T01:11:48;96861.34;;;2.71;100.00
48041;BME280;33815;48.386;11.738;2024-03-07T01:14:14;96872.38;;;2.73;100.00
48041;BME280;33815;48.386;11.738;2024-03-07T01:16:39;96870.97;;;2.82;100.00
48041;BME280;33815;48.386;11.738;2024-03-07T01:19:05;96878.69;;;2.82;100.00
48041;BME280;33815;48.386;11.738;2024-03-07T01:21:32;96875.75;;;2.73;100.00
48041;BME280;33815;48.386;11.738;2024-03-07T01:23:58;96872.56;;;2.70;100.00
48041;BME280;33815;48.386;11.738;2024-03-07T01:26:25;96864.47;;;2.62;100.00
48041;BME280;33815;48.386;11.738;2024-03-07T01:28:50;96867.41;;;2.70;100.00
48041;BME280;33815;48.386;11.738;2024-03-07T01:31:15;96869.34;;;2.66;100.00
48041;BME280;33815;48.386;11.738;2024-03-07T01:33:41;96862.81;;;2.61;100.00
48041;BME280;33815;48.386;11.738;2024-03-07T01:36:06;96868.53;;;2.66;100.00
48041;BME280;33815;48.386;11.738;2024-03-07T01:38:31;96848.06;;;2.50;100.00
48041;BME280;33815;48.386;11.738;2024-03-07T01:40:57;96856.56;;;2.65;100.00
48041;BME280;33815;48.386;11.738;2024-03-07T01:43:22;96861.91;;;2.62;100.00
48041;BME280;33815;48.386;11.738;2024-03-07T01:45:47;96841.63;;;2.57;100.00
48041;BME280;33815;48.386;11.738;2024-03-07T01:48:25;96857.41;;;2.65;100.00
48041;BME280;33815;48.386;11.738;2024-03-07T01:50:50;96849.78;;;2.64;100.00
48041;BME280;33815;48.386;11.738;2024-03-07T01:53:16;96844.38;;;2.54;100.00
48041;BME280;33815;48.386;11.738;2024-03-07T01:55:42;96845.38;;;2.51;100.00
48041;BME280;33815;48.386;11.738;2024-03-07T01:58:11;96829.94;;;2.37;100.00
48041;BME280;33815;48.386;11.738;2024-03-07T02:00:39;96839.78;;;2.45;100.00
48041;BME280;33815;48.386;11.738;2024-03-07T02:03:04;96838.13;;;2.44;100.00
48041;BME280;33815;48.386;11.738;2024-03-07T02:05:33;96834.63;;;2.45;100.00
48041;BME280;33815;48.386;11.738;2024-03-07T02:07:59;96836.91;;;2.49;100.00
48041;BME280;33815;48.386;11.738;2024-03-07T02:10:24;96831.59;;;2.38;100.00
48041;BME280;33815;48.386;11.738;2024-03-07T02:12:50;96833.81;;;2.44;100.00
48041;BME280;33815;48.386;11.738;2024-03-07T02:15:15;96824.81;;;2.37;100.00
48041;BME280;33815;48.386;11.738;2024-03-07T02:17:40;96833.28;;;2.39;100.00
48041;BME280;33815;48.386;11.738;2024-03-07T02:20:08;96836.41;;;2.44;100.00
48041;BME280;33815;48.386;11.738;2024-03-07T02:22:36;96802.69;;;2.34;100.00
48041;BME280;33815;48.386;11.738;2024-03-07T02:25:01;96816.81;;;2.27;100.00
48041;BME280;33815;48.386;11.738;2024-03-07T02:27:26;96830.88;;;2.36;100.00
48041;BME280;33815;48.386;11.738;2024-03-07T02:29:51;96815.28;;;2.25;100.00
48041;BME280;33815;48.386;11.738;2024-03-07T02:32:17;96825.72;;;2.21;100.00
48041;BME280;33815;48.386;11.738;2024-03-07T02:34:42;96822.72;;;2.29;100.00
48041;BME280;33815;48.386;11.738;2024-03-07T02:37:08;96805.34;;;2.18;100.00
48041;BME280;33815;48.386;11.738;2024-03-07T02:39:37;96813.97;;;2.17;100.00
48041;BME280;33815;48.386;11.738;2024-03-07T02:42:03;96824.00;;;2.22;100.00
48041;BME280;33815;48.386;11.738;2024-03-07T02:44:28;96815.00;;;2.15;100.00
48041;BME280;33815;48.386;11.738;2024-03-07T02:46:53;96778.56;;;1.94;100.00
48041;BME280;33815;48.386;11.738;2024-03-07T02:49:19;96813.69;;;2.08;100.00
48041;BME280;33815;48.386;11.738;2024-03-07T02:51:46;96817.28;;;2.19;100.00
48041;BME280;33815;48.386;11.738;2024-03-07T02:54:11;96810.31;;;2.07;100.00
48041;BME280;33815;48.386;11.738;2024-03-07T02:56:37;96815.44;;;2.07;100.00
48041;BME280;33815;48.386;11.738;2024-03-07T02:59:02;96792.13;;;1.96;100.00
48041;BME280;33815;48.386;11.738;2024-03-07T03:01:28;96809.94;;;1.99;100.00
48041;BME280;33815;48.386;11.738;2024-03-07T03:03:53;96805.91;;;1.80;100.00
48041;BME280;33815;48.386;11.738;2024-03-07T03:06:18;96811.94;;;1.79;100.00
48041;BME280;33815;48.386;11.738;2024-03-07T03:08:46;96811.56;;;1.71;100.00
48041;BME280;33815;48.386;11.738;2024-03-07T03:11:11;96812.03;;;1.63;100.00
48041;BME280;33815;48.386;11.738;2024-03-07T03:13:41;96799.06;;;1.50;100.00
48041;BME280;33815;48.386;11.738;2024-03-07T03:16:07;96812.44;;;1.56;100.00
48041;BME280;33815;48.386;11.738;2024-03-07T03:18:34;96814.19;;;1.55;100.00
48041;BME280;33815;48.386;11.738;2024-03-07T03:21:02;96791.44;;;1.49;100.00
48041;BME280;33815;48.386;11.738;2024-03-07T03:23:28;96822.09;;;1.52;100.00
48041;BME280;33815;48.386;11.738;2024-03-07T03:25:53;96816.59;;;1.58;100.00
48041;BME280;33815;48.386;11.738;2024-03-07T03:28:20;96812.44;;;1.56;100.00
48041;BME280;33815;48.386;11.738;2024-03-07T03:30:46;96816.59;;;1.58;100.00
48041;BME280;33815;48.386;11.738;2024-03-07T03:33:12;96817.44;;;1.59;100.00
48041;BME280;33815;48.386;11.738;2024-03-07T03:35:38;96818.06;;;1.62;100.00
48041;BME280;33815;48.386;11.738;2024-03-07T03:38:03;96806.47;;;1.41;100.00
48041;BME280;33815;48.386;11.738;2024-03-07T03:40:29;96812.91;;;1.48;100.00
48041;BME280;33815;48.386;11.738;2024-03-07T03:42:54;96812.44;;;1.56;100.00
48041;BME280;33815;48.386;11.738;2024-03-07T03:45:20;96818.72;;;1.66;100.00
48041;BME280;33815;48.386;11.738;2024-03-07T03:47:45;96811.91;;;1.50;100.00
48041;BME280;33815;48.386;11.738;2024-03-07T03:50:12;96817.13;;;1.49;100.00
48041;BME280;33815;48.386;11.738;2024-03-07T03:52:39;96802.25;;;1.54;100.00
48041;BME280;33815;48.386;11.738;2024-03-07T03:55:05;96804.94;;;1.52;100.00
48041;BME280;33815;48.386;11.738;2024-03-07T03:57:35;96792.44;;;1.46;100.00
48041;BME280;33815;48.386;11.738;2024-03-07T04:00:01;96808.75;;;1.45;100.00
48041;BME280;33815;48.386;11.738;2024-03-07T04:02:32;96798.69;;;1.42;100.00
48041;BME280;33815;48.386;11.738;2024-03-07T04:04:58;96797.19;;;1.38;100.00
48041;BME280;33815;48.386;11.738;2024-03-07T04:07:24;96802.41;;;1.36;100.00
48041;BME280;33815;48.386;11.738;2024-03-07T04:09:50;96806.16;;;1.31;100.00
48041;BME280;33815;48.386;11.738;2024-03-07T04:12:15;96803.94;;;1.25;100.00
48041;BME280;33815;48.386;11.738;2024-03-07T04:14:41;96793.63;;;1.10;100.00
48041;BME280;33815;48.386;11.738;2024-03-07T04:17:07;96810.50;;;1.14;100.00
48041;BME280;33815;48.386;11.738;2024-03-07T04:19:35;96800.25;;;1.14;100.00
48041;BME280;33815;48.386;11.738;2024-03-07T04:22:01;96802.63;;;1.17;100.00
48041;BME280;33815;48.386;11.738;2024-03-07T04:24:28;96812.91;;;1.17;100.00
48041;BME280;33815;48.386;11.738;2024-03-07T04:26:54;96786.19;;;1.06;100.00
48041;BME280;33815;48.386;11.738;2024-03-07T04:29:19;96807.22;;;1.12;100.00
48041;BME280;33815;48.386;11.738;2024-03-07T04:31:44;96812.72;;;1.20;100.00
48041;BME280;33815;48.386;11.738;2024-03-07T04:34:09;96811.22;;;1.16;100.00
48041;BME280;33815;48.386;11.738;2024-03-07T04:36:35;96804.66;;;1.12;100.00
48041;BME280;33815;48.386;11.738;2024-03-07T04:39:00;96808.03;;;1.13;100.00
48041;BME280;33815;48.386;11.738;2024-03-07T04:41:26;96802.84;;;0.98;100.00
48041;BME280;33815;48.386;11.738;2024-03-07T04:43:53;96814.41;;;1.06;100.00
48041;BME280;33815;48.386;11.738;2024-03-07T04:46:19;96806.97;;;1.01;100.00
48041;BME280;33815;48.386;11.738;2024-03-07T04:48:45;96812.34;;;0.96;100.00
48041;BME280;33815;48.386;11.738;2024-03-07T04:51:10;96811.63;;;0.94;100.00
48041;BME280;33815;48.386;11.738;2024-03-07T04:53:35;96813.63;;;0.89;100.00
48041;BME280;33815;48.386;11.738;2024-03-07T04:56:04;96821.63;;;0.99;100.00
48041;BME280;33815;48.386;11.738;2024-03-07T04:58:29;96809.28;;;0.90;100.00
48041;BME280;33815;48.386;11.738;2024-03-07T05:00:54;96831.16;;;0.97;100.00
48041;BME280;33815;48.386;11.738;2024-03-07T05:03:19;96817.31;;;0.99;100.00
48041;BME280;33815;48.386;11.738;2024-03-07T05:05:45;96815.59;;;1.00;100.00
48041;BME280;33815;48.386;11.738;2024-03-07T05:08:10;96809.78;;;0.96;100.00
48041;BME280;33815;48.386;11.738;2024-03-07T05:10:35;96816.59;;;0.97;100.00
48041;BME280;33815;48.386;11.738;2024-03-07T05:13:01;96823.28;;;1.00;100.00
48041;BME280;33815;48.386;11.738;2024-03-07T05:15:26;96816.59;;;0.97;100.00
48041;BME280;33815;48.386;11.738;2024-03-07T05:17:52;96810.47;;;1.00;100.00
48041;BME280;33815;48.386;11.738;2024-03-07T05:20:17;96826.09;;;1.11;100.00
48041;BME280;33815;48.386;11.738;2024-03-07T05:22:42;96821.22;;;1.07;100.00
48041;BME280;33815;48.386;11.738;2024-03-07T05:25:18;96810.47;;;1.00;100.00
48041;BME280;33815;48.386;11.738;2024-03-07T05:27:44;96816.50;;;0.99;100.00
48041;BME280;33815;48.386;11.738;2024-03-07T05:30:10;96823.13;;;1.03;100.00
48041;BME280;33815;48.386;11.738;2024-03-07T05:32:37;96826.50;;;1.19;100.00
48041;BME280;33815;48.386;11.738;2024-03-07T05:35:02;96818.66;;;1.07;100.00
48041;BME280;33815;48.386;11.738;2024-03-07T05:37:28;96829.56;;;1.10;100.00
48041;BME280;33815;48.386;11.738;2024-03-07T05:39:53;96816.22;;;1.03;100.00
48041;BME280;33815;48.386;11.738;2024-03-07T05:42:19;96831.22;;;1.11;100.00
48041;BME280;33815;48.386;11.738;2024-03-07T05:44:45;96827.56;;;1.15;100.00
48041;BME280;33815;48.386;11.738;2024-03-07T05:47:10;96831.84;;;1.15;100.00
48041;BME280;33815;48.386;11.738;2024-03-07T05:49:38;96829.06;;;1.19;100.00
48041;BME280;33815;48.386;11.738;2024-03-07T05:52:04;96831.63;;;1.19;100.00
48041;BME280;33815;48.386;11.738;2024-03-07T05:54:31;96817.53;;;1.11;100.00
48041;BME280;33815;48.386;11.738;2024-03-07T05:56:56;96818.56;;;1.08;100.00
48041;BME280;33815;48.386;11.738;2024-03-07T05:59:21;96831.44;;;1.23;100.00
48041;BME280;33815;48.386;11.738;2024-03-07T06:01:48;96826.00;;;1.13;100.00
48041;BME280;33815;48.386;11.738;2024-03-07T06:04:13;96823.16;;;1.17;100.00
48041;BME280;33815;48.386;11.738;2024-03-07T06:06:38;96824.47;;;1.25;100.00
48041;BME280;33815;48.386;11.738;2024-03-07T06:09:13;96833.75;;;1.27;100.00
48041;BME280;33815;48.386;11.738;2024-03-07T06:11:39;96832.19;;;1.25;100.00
48041;BME280;33815;48.386;11.738;2024-03-07T06:14:08;96827.22;;;1.22;100.00
48041;BME280;33815;48.386;11.738;2024-03-07T06:16:38;96818.22;;;1.14;100.00
48041;BME280;33815;48.386;11.738;2024-03-07T06:19:04;96826.13;;;1.26;100.00
48041;BME280;33815;48.386;11.738;2024-03-07T06:21:33;96813.66;;;1.19;100.00
48041;BME280;33815;48.386;11.738;2024-03-07T06:23:59;96820.38;;;1.22;100.00
48041;BME280;33815;48.386;11.738;2024-03-07T06:26:35;96830.09;;;1.31;100.00
48041;BME280;33815;48.386;11.738;2024-03-07T06:29:14;96833.03;;;1.25;100.00
48041;BME280;33815;48.386;11.738;2024-03-07T06:31:41;96829.53;;;1.26;100.00
48041;BME280;33815;48.386;11.738;2024-03-07T06:34:06;96821.91;;;1.25;100.00
48041;BME280;33815;48.386;11.738;2024-03-07T06:36:33;96823.78;;;1.37;100.00
48041;BME280;33815;48.386;11.738;2024-03-07T06:38:59;96820.41;;;1.20;100.00
48041;BME280;33815;48.386;11.738;2024-03-07T06:41:24;96832.56;;;1.33;100.00
48041;BME280;33815;48.386;11.738;2024-03-07T06:43:50;96826.53;;;1.34;100.00
48041;BME280;33815;48.386;11.738;2024-03-07T06:46:16;96825.81;;;1.32;100.00
48041;BME280;33815;48.386;11.738;2024-03-07T06:48:42;96833.53;;;1.46;100.00
48041;BME280;33815;48.386;11.738;2024-03-07T06:51:07;96835.25;;;1.46;100.00
48041;BME280;33815;48.386;11.738;2024-03-07T06:53:33;96826.25;;;1.39;100.00
48041;BME280;33815;48.386;11.738;2024-03-07T06:55:58;96828.22;;;1.49;100.00
48041;BME280;33815;48.386;11.738;2024-03-07T06:58:23;96814.47;;;1.50;100.00
48041;BME280;33815;48.386;11.738;2024-03-07T07:00:49;96826.56;;;1.48;100.00
48041;BME280;33815;48.386;11.738;2024-03-07T07:03:18;96832.31;;;1.68;100.00
48041;BME280;33815;48.386;11.738;2024-03-07T07:05:45;96834.53;;;1.74;100.00
48041;BME280;33815;48.386;11.738;2024-03-07T07:08:10;96842.06;;;1.77;100.00
48041;BME280;33815;48.386;11.738;2024-03-07T07:10:36;96822.78;;;1.84;100.00
48041;BME280;33815;48.386;11.738;2024-03-07T07:13:02;96834.91;;;1.97;100.00
48041;BME280;33815;48.386;11.738;2024-03-07T07:15:29;96840.69;;;2.00;100.00
48041;BME280;33815;48.386;11.738;2024-03-07T07:17:54;96835.38;;;2.18;100.00
48041;BME280;33815;48.386;11.738;2024-03-07T07:20:19;96836.97;;;2.20;100.00
48041;BME280;33815;48.386;11.738;2024-03-07T07:22:46;96838.69;;;2.20;100.00
48041;BME280;33815;48.386;11.738;2024-03-07T07:25:13;96827.69;;;2.18;100.00
48041;BME280;33815;48.386;11.738;2024-03-07T07:27:49;96828.50;;;2.18;100.00
48041;BME280;33815;48.386;11.738;2024-03-07T07:30:19;96836.28;;;2.31;100.00
48041;BME280;33815;48.386;11.738;2024-03-07T07:32:46;96829.88;;;2.38;100.00
48041;BME280;33815;48.386;11.738;2024-03-07T07:35:12;96833.53;;;2.49;100.00
48041;BME280;33815;48.386;11.738;2024-03-07T07:37:41;96831.53;;;2.54;100.00
48041;BME280;33815;48.386;11.738;2024-03-07T07:40:08;96825.91;;;2.47;100.00
48041;BME280;33815;48.386;11.738;2024-03-07T07:42:35;96818.28;;;2.46;100.00
48041;BME280;33815;48.386;11.738;2024-03-07T07:45:05;96838.75;;;2.62;100.00
48041;BME280;33815;48.386;11.738;2024-03-07T07:47:31;96836.13;;;2.76;100.00
48041;BME280;33815;48.386;11.738;2024-03-07T07:49:57;96846.13;;;2.95;100.00
48041;BME280;33815;48.386;11.738;2024-03-07T07:52:23;96835.63;;;2.71;100.00
48041;BME280;33815;48.386;11.738;2024-03-07T07:54:48;96842.22;;;2.75;100.00
48041;BME280;33815;48.386;11.738;2024-03-07T07:57:13;96840.19;;;2.80;100.00
48041;BME280;33815;48.386;11.738;2024-03-07T07:59:38;96837.41;;;2.83;100.00
48041;BME280;33815;48.386;11.738;2024-03-07T08:02:05;96830.44;;;2.85;100.00
48041;BME280;33815;48.386;11.738;2024-03-07T08:04:31;96832.44;;;2.80;100.00
48041;BME280;33815;48.386;11.738;2024-03-07T08:06:57;96827.84;;;3.13;100.00
48041;BME280;33815;48.386;11.738;2024-03-07T08:09:22;96834.94;;;3.36;100.00
48041;BME280;33815;48.386;11.738;2024-03-07T08:11:47;96825.59;;;3.48;100.00
48041;BME280;33815;48.386;11.738;2024-03-07T08:14:15;96819.53;;;3.88;100.00
48041;BME280;33815;48.386;11.738;2024-03-07T08:16:40;96818.31;;;4.06;100.00
48041;BME280;33815;48.386;11.738;2024-03-07T08:19:05;96827.06;;;4.29;100.00
48041;BME280;33815;48.386;11.738;2024-03-07T08:21:32;96805.25;;;4.46;100.00
48041;BME280;33815;48.386;11.738;2024-03-07T08:23:57;96814.34;;;4.52;100.00
48041;BME280;33815;48.386;11.738;2024-03-07T08:26:23;96819.56;;;4.63;100.00
48041;BME280;33815;48.386;11.738;2024-03-07T08:28:48;96818.59;;;4.77;100.00
48041;BME280;33815;48.386;11.738;2024-03-07T08:31:13;96799.72;;;4.77;99.52
48041;BME280;33815;48.386;11.738;2024-03-07T08:33:39;96808.63;;;4.97;99.60
48041;BME280;33815;48.386;11.738;2024-03-07T08:36:05;96812.22;;;5.19;100.00
48041;BME280;33815;48.386;11.738;2024-03-07T08:38:32;96813.53;;;5.48;97.70
48041;BME280;33815;48.386;11.738;2024-03-07T08:40:58;96803.69;;;4.94;92.35
48041;BME280;33815;48.386;11.738;2024-03-07T08:43:23;96813.50;;;5.13;91.24
48041;BME280;33815;48.386;11.738;2024-03-07T08:45:49;96814.81;;;5.43;94.84
48041;BME280;33815;48.386;11.738;2024-03-07T08:48:14;96808.66;;;5.32;93.49
48041;BME280;33815;48.386;11.738;2024-03-07T08:50:39;96798.50;;;5.54;93.50
48041;BME280;33815;48.386;11.738;2024-03-07T08:53:05;96781.56;;;5.49;94.26
48041;BME280;33815;48.386;11.738;2024-03-07T08:55:30;96814.03;;;5.65;94.08
48041;BME280;33815;48.386;11.738;2024-03-07T08:57:56;96813.19;;;5.53;93.41
48041;BME280;33815;48.386;11.738;2024-03-07T09:00:21;96815.66;;;5.19;91.18
48041;BME280;33815;48.386;11.738;2024-03-07T09:02:51;96797.44;;;4.96;94.04
48041;BME280;33815;48.386;11.738;2024-03-07T09:05:21;96803.16;;;4.89;93.25
48041;BME280;33815;48.386;11.738;2024-03-07T09:07:48;96800.09;;;5.08;91.88
48041;BME280;33815;48.386;11.738;2024-03-07T09:10:13;96783.84;;;5.30;95.39
48041;BME280;33815;48.386;11.738;2024-03-07T09:12:45;96798.25;;;6.49;91.85
48041;BME280;33815;48.386;11.738;2024-03-07T09:15:11;96796.09;;;6.77;90.62
48041;BME280;33815;48.386;11.738;2024-03-07T09:17:37;96799.28;;;7.45;88.37
48041;BME280;33815;48.386;11.738;2024-03-07T09:20:04;96796.56;;;7.68;85.67
48041;BME280;33815;48.386;11.738;2024-03-07T09:22:34;96807.41;;;7.52;82.56
48041;BME280;33815;48.386;11.738;2024-03-07T09:24:59;96795.38;;;7.51;83.71
48041;BME280;33815;48.386;11.738;2024-03-07T09:27:25;96787.97;;;7.67;80.62
48041;BME280;33815;48.386;11.738;2024-03-07T09:29:50;96801.84;;;7.24;82.12
48041;BME280;33815;48.386;11.738;2024-03-07T09:32:16;96802.59;;;7.15;81.73
48041;BME280;33815;48.386;11.738;2024-03-07T09:34:42;96801.06;;;6.68;82.49
48041;BME280;33815;48.386;11.738;2024-03-07T09:37:07;96807.06;;;6.58;84.68
48041;BME280;33815;48.386;11.738;2024-03-07T09:39:33;96799.91;;;6.50;85.78
48041;BME280;33815;48.386;11.738;2024-03-07T09:42:01;96802.25;;;6.64;84.98
48041;BME280;33815;48.386;11.738;2024-03-07T09:44:28;96803.41;;;6.60;86.21
48041;BME280;33815;48.386;11.738;2024-03-07T09:46:55;96807.22;;;7.11;85.88
48041;BME280;33815;48.386;11.738;2024-03-07T09:49:21;96802.78;;;7.23;82.61
48041;BME280;33815;48.386;11.738;2024-03-07T09:51:47;96805.81;;;7.07;81.92
48041;BME280;33815;48.386;11.738;2024-03-07T09:54:12;96794.63;;;7.28;83.40
48041;BME280;33815;48.386;11.738;2024-03-07T09:56:40;96801.63;;;7.48;80.91
48041;BME280;33815;48.386;11.738;2024-03-07T09:59:10;96791.56;;;7.76;80.41
48041;BME280;33815;48.386;11.738;2024-03-07T10:01:37;96794.25;;;7.65;79.81
48041;BME280;33815;48.386;11.738;2024-03-07T10:04:05;96786.94;;;7.59;79.42
48041;BME280;33815;48.386;11.738;2024-03-07T10:06:43;96800.50;;;7.09;81.98
48041;BME280;33815;48.386;11.738;2024-03-07T10:09:12;96783.41;;;7.38;80.77
48041;BME280;33815;48.386;11.738;2024-03-07T10:11:41;96798.78;;;7.51;78.02
48041;BME280;33815;48.386;11.738;2024-03-07T10:14:09;96800.94;;;7.67;80.71
48041;BME280;33815;48.386;11.738;2024-03-07T10:16:35;96795.91;;;7.76;79.30
48041;BME280;33815;48.386;11.738;2024-03-07T10:19:04;96793.97;;;7.89;80.49
48041;BME280;33815;48.386;11.738;2024-03-07T10:21:30;96790.72;;;8.18;77.59
48041;BME280;33815;48.386;11.738;2024-03-07T10:24:05;96801.44;;;7.82;78.48
48041;BME280;33815;48.386;11.738;2024-03-07T10:26:34;96797.75;;;7.85;79.08
48041;BME280;33815;48.386;11.738;2024-03-07T10:28:59;96786.66;;;7.52;80.58
48041;BME280;33815;48.386;11.738;2024-03-07T10:31:32;96796.19;;;7.72;80.46
48041;BME280;33815;48.386;11.738;2024-03-07T10:33:59;96801.63;;;7.69;78.97
48041;BME280;33815;48.386;11.738;2024-03-07T10:36:25;96794.91;;;7.46;76.99
48041;BME280;33815;48.386;11.738;2024-03-07T10:38:50;96791.38;;;7.47;77.07
48041;BME280;33815;48.386;11.738;2024-03-07T10:41:20;96780.22;;;7.35;77.09
48041;BME280;33815;48.386;11.738;2024-03-07T10:43:48;96789.41;;;7.39;77.91
48041;BME280;33815;48.386;11.738;2024-03-07T10:46:19;96797.88;;;7.20;77.36
48041;BME280;33815;48.386;11.738;2024-03-07T10:48:48;96790.75;;;6.90;76.42
48041;BME280;33815;48.386;11.738;2024-03-07T10:51:26;96780.34;;;6.57;78.70
48041;BME280;33815;48.386;11.738;2024-03-07T10:56:29;96793.91;;;6.49;80.88
48041;BME280;33815;48.386;11.738;2024-03-07T10:59:16;96788.28;;;6.33;84.60
48041;BME280;33815;48.386;11.738;2024-03-07T11:04:47;96771.09;;;6.32;83.78
48041;BME280;33815;48.386;11.738;2024-03-07T11:07:15;96771.41;;;6.61;80.94
48041;BME280;33815;48.386;11.738;2024-03-07T11:09:41;96771.66;;;6.58;81.56
48041;BME280;33815;48.386;11.738;2024-03-07T11:12:09;96780.31;;;6.80;84.08
48041;BME280;33815;48.386;11.738;2024-03-07T11:14:37;96773.44;;;7.01;80.74
48041;BME280;33815;48.386;11.738;2024-03-07T11:17:03;96775.00;;;7.25;80.82
48041;BME280;33815;48.386;11.738;2024-03-07T11:19:31;96772.72;;;7.53;79.86
48041;BME280;33815;48.386;11.738;2024-03-07T11:22:01;96732.72;;;7.77;75.58
48041;BME280;33815;48.386;11.738;2024-03-07T11:24:30;96764.25;;;7.72;72.71
48041;BME280;33815;48.386;11.738;2024-03-07T11:27:02;96763.03;;;7.55;75.74
48041;BME280;33815;48.386;11.738;2024-03-07T11:29:50;96769.84;;;7.35;76.04
48041;BME280;33815;48.386;11.738;2024-03-07T11:32:19;96745.69;;;7.34;76.83
48041;BME280;33815;48.386;11.738;2024-03-07T11:34:46;96769.38;;;7.62;75.14
48041;BME280;33815;48.386;11.738;2024-03-07T11:37:19;96764.69;;;7.56;75.12
48041;BME280;33815;48.386;11.738;2024-03-07T11:39:49;96747.28;;;7.68;74.91
48041;BME280;33815;48.386;11.738;2024-03-07T11:42:31;96742.63;;;7.41;74.22
48041;BME280;33815;48.386;11.738;2024-03-07T11:44:59;96755.31;;;7.23;77.39
48041;BME280;33815;48.386;11.738;2024-03-07T11:47:25;96750.06;;;7.34;75.84
48041;BME280;33815;48.386;11.738;2024-03-07T11:49:54;96757.84;;;7.13;77.62
48041;BME280;33815;48.386;11.738;2024-03-07T11:52:19;96751.38;;;7.07;78.22
48041;BME280;33815;48.386;11.738;2024-03-07T11:54:45;96751.78;;;6.91;77.72
48041;BME280;33815;48.386;11.738;2024-03-07T11:57:18;96740.34;;;6.50;80.22
48041;BME280;33815;48.386;11.738;2024-03-07T11:59:58;96739.31;;;6.41;81.82
48041;BME280;33815;48.386;11.738;2024-03-07T12:02:27;96749.88;;;6.61;79.63
48041;BME280;33815;48.386;11.738;2024-03-07T12:04:52;96730.34;;;6.57;80.72
48041;BME280;33815;48.386;11.738;2024-03-07T12:07:18;96736.56;;;6.65;79.24
48041;BME280;33815;48.386;11.738;2024-03-07T12:09:44;96732.06;;;6.67;80.30
48041;BME280;33815;48.386;11.738;2024-03-07T12:12:19;96718.00;;;6.38;78.79
48041;BME280;33815;48.386;11.738;2024-03-07T12:14:47;96739.81;;;6.67;77.37
48041;BME280;33815;48.386;11.738;2024-03-07T12:17:13;96736.84;;;6.51;80.04
48041;BME280;33815;48.386;11.738;2024-03-07T12:19:40;96722.34;;;6.48;80.90
48041;BME280;33815;48.386;11.738;2024-03-07T12:22:08;96730.31;;;7.00;78.21
48041;BME280;33815;48.386;11.738;2024-03-07T12:24:38;96730.25;;;7.12;78.27
48041;BME280;33815;48.386;11.738;2024-03-07T12:27:09;96725.03;;;7.23;79.10
48041;BME280;33815;48.386;11.738;2024-03-07T12:29:36;96706.56;;;7.37;78.53
48041;BME280;33815;48.386;11.738;2024-03-07T12:32:06;96722.94;;;7.59;76.49
48041;BME280;33815;48.386;11.738;2024-03-07T12:34:36;96717.81;;;7.48;75.68
48041;BME280;33815;48.386;11.738;2024-03-07T12:37:06;96706.91;;;7.75;76.32
48041;BME280;33815;48.386;11.738;2024-03-07T12:39:34;96720.19;;;7.82;75.21
48041;BME280;33815;48.386;11.738;2024-03-07T12:42:12;96715.50;;;7.76;75.94
48041;BME280;33815;48.386;11.738;2024-03-07T12:44:44;96700.63;;;7.78;73.19
48041;BME280;33815;48.386;11.738;2024-03-07T12:47:14;96707.78;;;7.64;75.15
48041;BME280;33815;48.386;11.738;2024-03-07T12:49:40;96683.13;;;7.49;73.90
48041;BME280;33815;48.386;11.738;2024-03-07T12:52:06;96689.81;;;7.72;75.72
48041;BME280;33815;48.386;11.738;2024-03-07T12:54:35;96687.16;;;7.63;75.13
48041;BME280;33815;48.386;11.738;2024-03-07T12:57:06;96689.13;;;7.70;74.53